Time;durP1;ratioP1;P1;durP2;ratioP2;P2;SDS_P1;SDS_P2;PMS_P1;PMS_P2;Temp;Humidity;BMP_temperature;BMP_pressure;BME280_temperature;BME280_humidity;BME280_pressure;Samples;Min_cycle;Max_cycle;Signal;HPM_P1;HPM_P2
2023/11/11 00:01:55;;;;;;;1.73;0.77;;;7.00;12.00;;;;;;5011436;28;20431;-70
2023/11/11 00:04:24;;;;;;;2.57;1.07;;;7.00;11.80;;;;;;5011643;28;20531;-71
2023/11/11 00:06:51;;;;;;;1.57;0.63;;;7.10;10.50;;;;;;5011707;28;20176;-70
2023/11/11 00:09:18;;;;;;;1.40;0.50;;;7.10;10.40;;;;;;5011700;28;20547;-70
2023/11/11 00:11:44;;;;;;;1.70;0.77;;;7.20;9.50;;;;;;5011389;28;20437;-70
2023/11/11 00:14:11;;;;;;;1.40;0.50;;;7.20;9.70;;;;;;4994048;28;20804;-70
2023/11/11 00:16:37;;;;;;;1.57;0.40;;;7.20;8.60;;;;;;5011763;28;20430;-70
2023/11/11 00:19:02;;;;;;;1.40;0.40;;;7.30;7.40;;;;;;5011697;28;20421;-70
2023/11/11 00:21:28;;;;;;;2.90;0.50;;;7.40;8.50;;;;;;4993670;28;20522;-70
2023/11/11 00:23:57;;;;;;;1.97;0.60;;;7.40;8.80;;;;;;4993854;28;20544;-70
2023/11/11 00:26:23;;;;;;;2.50;0.63;;;7.40;8.80;;;;;;5026798;28;20192;-70
2023/11/11 00:28:49;;;;;;;1.50;0.60;;;7.40;8.80;;;;;;5011711;28;20413;-70
2023/11/11 00:31:15;;;;;;;1.80;0.60;;;7.50;8.80;;;;;;5026476;28;20517;-70
2023/11/11 00:33:42;;;;;;;1.43;0.47;;;7.50;8.30;;;;;;5011387;28;20526;-70
2023/11/11 00:36:11;;;;;;;1.43;0.47;;;7.50;8.00;;;;;;4996944;28;20415;-71
2023/11/11 00:38:37;;;;;;;1.40;0.40;;;7.50;8.50;;;;;;5015107;28;20412;-70
2023/11/11 00:41:03;;;;;;;1.50;0.43;;;7.50;8.30;;;;;;5014982;28;20431;-70
2023/11/11 00:43:30;;;;;;;1.40;0.50;;;7.50;8.10;;;;;;5014795;28;20741;-70
2023/11/11 00:45:55;;;;;;;1.50;0.50;;;7.50;8.00;;;;;;5014947;28;20403;-70
2023/11/11 00:48:21;;;;;;;1.40;0.50;;;7.50;8.40;;;;;;5014939;28;20937;-70
2023/11/11 00:50:47;;;;;;;1.40;0.47;;;7.50;8.80;;;;;;5014647;28;20197;-70
2023/11/11 00:53:14;;;;;;;2.20;0.50;;;7.50;9.90;;;;;;5029916;28;20443;-70
2023/11/11 00:55:40;;;;;;;1.40;0.40;;;7.50;10.30;;;;;;5014943;28;20206;-70
2023/11/11 00:58:06;;;;;;;1.40;0.40;;;7.40;11.40;;;;;;5014722;28;20459;-70
2023/11/11 01:00:31;;;;;;;1.40;0.50;;;7.40;11.00;;;;;;5029817;28;20200;-70
2023/11/11 01:02:58;;;;;;;1.37;0.43;;;7.40;9.40;;;;;;5014447;28;20335;-70
2023/11/11 01:05:24;;;;;;;1.40;0.40;;;7.40;9.90;;;;;;5014616;28;20173;-70
2023/11/11 01:07:49;;;;;;;1.40;0.57;;;7.40;11.20;;;;;;5014592;28;20418;-69
2023/11/11 01:10:18;;;;;;;1.40;0.50;;;7.30;10.80;;;;;;5015203;28;20456;-70
2023/11/11 01:12:44;;;;;;;1.40;0.40;;;7.30;11.20;;;;;;5014595;28;20671;-70
2023/11/11 01:15:12;;;;;;;1.40;0.60;;;7.30;12.00;;;;;;5014561;28;20412;-70
2023/11/11 01:17:38;;;;;;;2.07;0.80;;;7.30;13.00;;;;;;5014444;28;20499;-70
2023/11/11 01:20:04;;;;;;;1.40;0.50;;;7.30;13.10;;;;;;5014374;28;20479;-70
2023/11/11 01:22:30;;;;;;;1.50;0.53;;;7.30;13.10;;;;;;5014120;28;20416;-71
2023/11/11 01:24:55;;;;;;;1.40;0.50;;;7.20;13.90;;;;;;5014337;28;20833;-70
2023/11/11 01:27:21;;;;;;;1.50;0.60;;;7.20;14.60;;;;;;4996683;28;20673;-70
2023/11/11 01:29:47;;;;;;;3.23;0.50;;;7.20;14.00;;;;;;5014238;28;20283;-71
2023/11/11 01:32:13;;;;;;;1.40;0.40;;;7.10;14.80;;;;;;5013749;28;20203;-70
2023/11/11 01:34:38;;;;;;;1.60;0.60;;;7.10;14.20;;;;;;5014036;28;20182;-71
2023/11/11 01:37:08;;;;;;;1.40;0.50;;;7.10;15.90;;;;;;5014105;28;20178;-70
2023/11/11 01:39:34;;;;;;;1.83;0.70;;;7.10;16.70;;;;;;5029316;28;20552;-70
2023/11/11 01:42:00;;;;;;;1.40;0.50;;;7.00;16.60;;;;;;5028865;28;20471;-70
2023/11/11 01:44:26;;;;;;;1.83;0.70;;;6.90;17.40;;;;;;5013943;28;20498;-71
2023/11/11 01:46:51;;;;;;;1.73;0.53;;;6.90;17.90;;;;;;5013595;28;20220;-71
2023/11/11 01:49:18;;;;;;;1.50;0.50;;;6.90;18.10;;;;;;5013851;28;20642;-71
2023/11/11 01:51:44;;;;;;;1.40;0.60;;;6.90;17.10;;;;;;5013743;28;20667;-71
2023/11/11 01:54:11;;;;;;;1.60;0.67;;;6.90;17.10;;;;;;5013818;28;20404;-71
2023/11/11 01:56:37;;;;;;;1.50;0.67;;;6.90;16.50;;;;;;5013829;28;20416;-71
2023/11/11 01:59:04;;;;;;;3.60;0.70;;;7.00;16.70;;;;;;4996094;28;20415;-70
2023/11/11 02:01:30;;;;;;;1.50;0.50;;;6.90;17.10;;;;;;4995779;28;20440;-71
2023/11/11 02:03:56;;;;;;;1.60;0.60;;;6.90;17.10;;;;;;5013429;28;20957;-71
2023/11/11 02:06:21;;;;;;;3.60;0.70;;;6.90;18.30;;;;;;5013651;28;20596;-70
2023/11/11 02:08:47;;;;;;;1.47;0.60;;;6.90;18.80;;;;;;5013373;28;20499;-70
2023/11/11 02:11:13;;;;;;;1.67;0.83;;;7.00;18.30;;;;;;5013401;28;20186;-70
2023/11/11 02:13:39;;;;;;;1.50;0.70;;;6.90;20.00;;;;;;5013306;28;20180;-70
2023/11/11 02:16:05;;;;;;;2.00;0.63;;;6.70;18.60;;;;;;5028474;28;20419;-71
2023/11/11 02:18:31;;;;;;;1.63;0.60;;;6.60;19.00;;;;;;5013246;28;20469;-72
2023/11/11 02:20:57;;;;;;;2.20;0.60;;;6.50;20.10;;;;;;4995528;28;20512;-70
2023/11/11 02:23:34;;;;;;;1.60;0.70;;;6.50;19.60;;;;;;5028129;28;20200;-70
2023/11/11 02:26:00;;;;;;;1.40;0.50;;;6.40;20.40;;;;;;5013655;28;20457;-71
2023/11/11 02:28:26;;;;;;;1.40;0.50;;;6.40;19.50;;;;;;5013010;28;20466;-71
2023/11/11 02:30:51;;;;;;;1.50;0.50;;;6.40;21.00;;;;;;5012783;28;20458;-71
2023/11/11 02:33:17;;;;;;;1.50;0.50;;;6.40;21.00;;;;;;5012783;28;20176;-71
2023/11/11 02:35:43;;;;;;;2.73;0.60;;;6.40;22.00;;;;;;5012959;28;20251;-70
2023/11/11 02:38:08;;;;;;;1.50;0.53;;;6.40;23.10;;;;;;5012976;28;20259;-71
2023/11/11 02:40:34;;;;;;;1.40;0.50;;;6.50;23.80;;;;;;5012954;28;20204;-70
2023/11/11 02:42:59;;;;;;;1.40;0.50;;;6.50;23.80;;;;;;4994887;28;20266;-71
2023/11/11 02:45:25;;;;;;;1.50;0.50;;;6.50;24.50;;;;;;5012886;28;20191;-70
2023/11/11 02:47:51;;;;;;;2.13;0.60;;;6.40;25.70;;;;;;5027984;28;20601;-71
2023/11/11 02:50:16;;;;;;;3.00;0.57;;;6.50;26.70;;;;;;5012717;28;20223;-71
2023/11/11 02:52:42;;;;;;;3.30;1.10;;;6.50;27.50;;;;;;5012450;28;20243;-71
2023/11/11 02:55:09;;;;;;;2.40;0.70;;;6.50;28.50;;;;;;5027869;28;20195;-72
2023/11/11 02:57:35;;;;;;;2.03;0.70;;;6.50;28.20;;;;;;5027084;28;20659;-70
2023/11/11 03:00:01;;;;;;;1.60;0.50;;;6.50;28.30;;;;;;5012412;28;20457;-71
2023/11/11 03:02:27;;;;;;;1.40;0.50;;;6.50;27.00;;;;;;5012286;28;20170;-71
2023/11/11 03:04:52;;;;;;;1.50;0.60;;;6.60;26.90;;;;;;5012510;28;21041;-71
2023/11/11 03:07:18;;;;;;;1.50;0.70;;;6.60;25.30;;;;;;5012546;28;20671;-71
2023/11/11 03:09:44;;;;;;;1.93;0.63;;;6.60;24.00;;;;;;5012507;28;20172;-71
2023/11/11 03:12:11;;;;;;;1.50;0.50;;;6.60;22.90;;;;;;5012147;28;20721;-72
2023/11/11 03:14:37;;;;;;;1.70;0.60;;;6.60;22.20;;;;;;5027607;28;20540;-72
2023/11/11 03:17:03;;;;;;;2.10;0.70;;;6.60;21.20;;;;;;5012601;28;20828;-71
2023/11/11 03:19:28;;;;;;;1.50;0.60;;;6.50;21.10;;;;;;5012386;28;20454;-71
2023/11/11 03:21:54;;;;;;;1.50;0.50;;;6.50;19.80;;;;;;5012311;28;20195;-72
2023/11/11 03:24:20;;;;;;;2.60;0.57;;;6.50;17.90;;;;;;5012136;28;20392;-72
2023/11/11 03:26:46;;;;;;;1.40;0.40;;;6.50;16.80;;;;;;5012192;28;20411;-71
2023/11/11 03:29:11;;;;;;;2.00;0.70;;;6.40;17.50;;;;;;5012102;28;20168;-70
2023/11/11 03:31:37;;;;;;;1.50;0.40;;;6.30;18.40;;;;;;5026695;22;20271;-68
2023/11/11 03:34:02;;;;;;;1.40;0.40;;;6.30;18.90;;;;;;4992676;28;20181;-68
2023/11/11 03:36:28;;;;;;;1.40;0.40;;;6.30;19.50;;;;;;4993074;28;20237;-69
2023/11/11 03:38:54;;;;;;;1.60;0.50;;;6.30;19.70;;;;;;4992517;28;20181;-69
2023/11/11 03:41:19;;;;;;;1.50;0.50;;;6.30;19.20;;;;;;4984517;28;20201;-67
2023/11/11 03:43:45;;;;;;;1.40;0.40;;;6.20;20.10;;;;;;4972718;28;20209;-67
2023/11/11 03:46:10;;;;;;;1.47;0.50;;;6.20;20.40;;;;;;4973070;28;20174;-67
2023/11/11 03:48:36;;;;;;;2.57;0.40;;;6.20;20.90;;;;;;4973184;28;20657;-67
2023/11/11 03:51:02;;;;;;;1.50;0.40;;;6.20;21.40;;;;;;4973389;28;20205;-68
2023/11/11 03:53:28;;;;;;;1.50;0.60;;;6.10;21.10;;;;;;4973105;28;20646;-67
2023/11/11 03:55:54;;;;;;;1.50;0.50;;;6.10;22.10;;;;;;4973536;28;20474;-67
2023/11/11 03:58:19;;;;;;;1.60;0.60;;;6.00;23.10;;;;;;4973221;28;20657;-67
2023/11/11 04:00:45;;;;;;;1.40;0.40;;;5.90;24.80;;;;;;4973352;28;20197;-67
2023/11/11 04:03:12;;;;;;;1.83;0.57;;;5.90;25.30;;;;;;4972841;28;20299;-67
2023/11/11 04:05:37;;;;;;;1.63;0.70;;;5.90;25.70;;;;;;4973227;28;20177;-67
2023/11/11 04:08:03;;;;;;;1.60;0.60;;;5.90;25.50;;;;;;4955681;28;20523;-67
2023/11/11 04:10:30;;;;;;;1.90;0.57;;;6.00;25.70;;;;;;4959527;28;20223;-67
2023/11/11 04:13:00;;;;;;;1.50;0.50;;;6.10;25.90;;;;;;4959273;28;20189;-68
2023/11/11 04:15:26;;;;;;;2.20;0.57;;;6.10;26.20;;;;;;4976940;28;20413;-68
2023/11/11 04:17:52;;;;;;;2.10;0.77;;;6.10;26.10;;;;;;4959769;28;20436;-67
2023/11/11 04:20:17;;;;;;;1.70;0.60;;;6.10;26.20;;;;;;4976811;28;20426;-68
2023/11/11 04:22:43;;;;;;;2.00;0.83;;;6.10;26.90;;;;;;4976449;28;20178;-68
2023/11/11 04:25:10;;;;;;;1.50;0.70;;;6.10;27.70;;;;;;4959341;28;20181;-68
2023/11/11 04:27:37;;;;;;;1.60;0.77;;;6.20;27.60;;;;;;4959264;28;20479;-68
2023/11/11 04:30:04;;;;;;;1.50;0.70;;;6.20;27.50;;;;;;4959194;28;20557;-68
2023/11/11 04:32:30;;;;;;;1.50;0.63;;;6.20;27.30;;;;;;4976057;28;20495;-67
2023/11/11 04:34:55;;;;;;;1.60;0.70;;;6.10;27.70;;;;;;4976497;28;20428;-67
2023/11/11 04:37:21;;;;;;;1.60;0.70;;;6.10;27.90;;;;;;4976579;28;20793;-67
2023/11/11 04:39:47;;;;;;;2.13;0.70;;;6.00;28.20;;;;;;4976405;28;20730;-68
2023/11/11 04:42:16;;;;;;;1.60;0.63;;;6.00;28.30;;;;;;4976268;28;20273;-68
2023/11/11 04:44:42;;;;;;;1.83;0.80;;;6.00;27.90;;;;;;4976292;28;20464;-68
2023/11/11 04:47:08;;;;;;;1.93;0.83;;;6.00;28.10;;;;;;4976190;28;20416;-68
2023/11/11 04:49:34;;;;;;;1.90;0.60;;;6.10;28.20;;;;;;4976247;28;20786;-68
2023/11/11 04:52:00;;;;;;;1.83;0.70;;;6.10;28.00;;;;;;4975799;28;20448;-68
2023/11/11 04:54:26;;;;;;;2.00;0.90;;;6.10;27.30;;;;;;4976134;28;20203;-68
2023/11/11 04:56:52;;;;;;;3.23;0.80;;;6.10;29.00;;;;;;4976083;28;20173;-68
2023/11/11 04:59:18;;;;;;;2.10;0.80;;;6.10;28.60;;;;;;4958536;28;20429;-68
2023/11/11 05:01:44;;;;;;;1.70;0.70;;;6.00;29.00;;;;;;4958370;28;20455;-68
2023/11/11 05:04:11;;;;;;;2.23;1.07;;;6.00;29.00;;;;;;4975744;28;20968;-68
2023/11/11 05:06:36;;;;;;;2.70;0.77;;;6.00;29.60;;;;;;4975787;28;20675;-68
2023/11/11 05:09:04;;;;;;;2.53;0.93;;;6.00;29.50;;;;;;4976249;28;20487;-68
2023/11/11 05:11:30;;;;;;;2.60;1.33;;;5.90;30.00;;;;;;4975593;28;20200;-68
2023/11/11 05:14:09;;;;;;;2.13;1.10;;;5.90;30.00;;;;;;4975544;28;20416;-68
2023/11/11 05:16:43;;;;;;;2.30;1.10;;;5.90;30.00;;;;;;4958073;28;20428;-68
2023/11/11 05:19:10;;;;;;;1.60;0.73;;;5.90;30.40;;;;;;4975636;28;20440;-68
2023/11/11 05:21:37;;;;;;;2.00;0.90;;;6.00;30.00;;;;;;4974470;28;20547;-68
2023/11/11 05:24:03;;;;;;;2.90;1.30;;;5.90;29.30;;;;;;4972407;28;20556;-67
2023/11/11 05:26:32;;;;;;;1.60;0.80;;;5.90;29.40;;;;;;4965854;28;20417;-68
2023/11/11 05:28:58;;;;;;;2.17;1.17;;;5.80;29.80;;;;;;4948811;28;20474;-68
2023/11/11 05:31:28;;;;;;;2.30;1.70;;;5.90;30.60;;;;;;4972372;28;20456;-68
2023/11/11 05:33:55;;;;;;;2.23;1.10;;;5.90;28.90;;;;;;4975150;28;20427;-68
2023/11/11 05:36:21;;;;;;;1.73;0.90;;;5.90;28.90;;;;;;4975362;28;20425;-68
2023/11/11 05:38:49;;;;;;;3.17;1.10;;;5.90;27.50;;;;;;4975112;28;20475;-69
2023/11/11 05:41:15;;;;;;;2.57;1.27;;;5.90;28.30;;;;;;4957784;28;20212;-68
2023/11/11 05:43:41;;;;;;;1.60;0.90;;;5.90;27.60;;;;;;4974807;28;20575;-67
2023/11/11 05:46:10;;;;;;;1.87;0.90;;;5.90;28.10;;;;;;4975124;28;20440;-67
2023/11/11 05:48:39;;;;;;;2.00;0.90;;;6.00;27.80;;;;;;4975229;28;20169;-67
2023/11/11 05:51:06;;;;;;;5.50;1.53;;;6.00;26.30;;;;;;4974869;28;20475;-67
2023/11/11 05:53:32;;;;;;;2.10;1.00;;;6.00;26.10;;;;;;4957431;28;20475;-67
2023/11/11 05:55:58;;;;;;;3.87;1.30;;;6.00;26.50;;;;;;4974854;28;20476;-68
2023/11/11 05:58:23;;;;;;;3.77;1.60;;;6.00;26.20;;;;;;4974907;28;20416;-68
2023/11/11 06:00:49;;;;;;;7.47;2.30;;;5.90;26.60;;;;;;4957446;28;20209;-68
2023/11/11 06:03:14;;;;;;;3.07;1.20;;;5.90;26.80;;;;;;4957280;28;20805;-68
2023/11/11 06:05:40;;;;;;;2.10;1.30;;;5.80;27.00;;;;;;4974693;28;20192;-68
2023/11/11 06:08:09;;;;;;;3.80;1.23;;;5.80;27.70;;;;;;4974574;28;20173;-68
2023/11/11 06:10:36;;;;;;;2.20;1.17;;;5.90;28.10;;;;;;4957004;28;20188;-67
2023/11/11 06:13:05;;;;;;;3.00;1.63;;;5.90;27.60;;;;;;4974371;28;20788;-67
2023/11/11 06:15:37;;;;;;;2.30;1.37;;;5.90;27.70;;;;;;4974511;28;20428;-68
2023/11/11 06:18:03;;;;;;;3.30;2.30;;;5.90;26.40;;;;;;4974506;28;20960;-67
2023/11/11 06:20:30;;;;;;;3.40;1.80;;;5.90;27.20;;;;;;4974376;28;20425;-68
2023/11/11 06:22:59;;;;;;;2.17;1.40;;;6.00;26.90;;;;;;4956838;28;20515;-67
2023/11/11 06:25:25;;;;;;;5.10;1.67;;;6.00;26.70;;;;;;4974501;28;20419;-67
2023/11/11 06:27:51;;;;;;;3.50;1.57;;;5.90;25.20;;;;;;4974262;28;20417;-67
2023/11/11 06:30:19;;;;;;;2.97;2.00;;;6.10;26.60;;;;;;4974293;28;20264;-68
2023/11/11 06:32:51;;;;;;;3.77;1.97;;;6.10;25.00;;;;;;4972968;28;20425;-68
2023/11/11 06:35:18;;;;;;;5.90;2.03;;;6.10;24.60;;;;;;4974483;28;20416;-68
2023/11/11 06:37:44;;;;;;;3.27;1.60;;;6.10;24.90;;;;;;4974312;28;20769;-68
2023/11/11 06:40:10;;;;;;;2.90;1.23;;;6.10;23.20;;;;;;4974175;28;20436;-67
2023/11/11 06:42:37;;;;;;;3.83;1.70;;;6.00;22.20;;;;;;4974047;28;20436;-68
2023/11/11 06:45:04;;;;;;;3.60;1.83;;;6.00;23.50;;;;;;4974205;28;20530;-68
2023/11/11 06:47:33;;;;;;;4.00;2.00;;;6.20;23.30;;;;;;4974273;28;20417;-67
2023/11/11 06:49:58;;;;;;;4.13;2.30;;;6.10;22.60;;;;;;4974256;28;20420;-68
2023/11/11 06:52:24;;;;;;;4.10;2.10;;;6.20;22.10;;;;;;4974521;28;20828;-67
2023/11/11 06:54:50;;;;;;;4.10;2.37;;;6.20;22.00;;;;;;4980644;28;20488;-68
2023/11/11 06:57:16;;;;;;;3.00;1.97;;;6.20;21.40;;;;;;4979981;28;20556;-68
2023/11/11 06:59:42;;;;;;;3.47;1.60;;;6.30;20.00;;;;;;4978810;28;20268;-68
2023/11/11 07:02:12;;;;;;;3.40;1.67;;;6.30;19.60;;;;;;4979022;28;20464;-67
2023/11/11 07:04:39;;;;;;;3.10;1.43;;;6.20;19.80;;;;;;4979713;28;20276;-68
2023/11/11 07:07:04;;;;;;;2.70;1.63;;;6.20;17.10;;;;;;4980010;28;20423;-70
2023/11/11 07:09:30;;;;;;;3.00;1.90;;;6.30;19.00;;;;;;4978103;28;20412;-69
2023/11/11 07:11:57;;;;;;;3.00;2.13;;;6.30;16.70;;;;;;4976303;28;20208;-69
2023/11/11 07:14:25;;;;;;;3.07;2.00;;;6.30;16.70;;;;;;4959495;28;20424;-68
2023/11/11 07:16:51;;;;;;;2.40;1.20;;;6.30;14.80;;;;;;4976671;28;20465;-67
2023/11/11 07:19:16;;;;;;;3.07;1.60;;;6.30;12.40;;;;;;4975949;28;20433;-67
2023/11/11 07:21:42;;;;;;;3.43;1.40;;;6.30;13.30;;;;;;4975823;28;20476;-69
2023/11/11 07:24:09;;;;;;;3.10;1.50;;;6.30;12.70;;;;;;4958756;28;20655;-69
2023/11/11 07:26:35;;;;;;;2.00;1.00;;;6.30;12.40;;;;;;4975909;28;20435;-67
2023/11/11 07:29:02;;;;;;;4.30;1.40;;;6.20;11.90;;;;;;4975599;28;21021;-72
2023/11/11 07:31:28;;;;;;;2.97;0.97;;;6.20;12.70;;;;;;4973550;28;20227;-70
2023/11/11 07:33:55;;;;;;;2.60;1.30;;;6.30;12.40;;;;;;4956321;28;20417;-72
2023/11/11 07:36:21;;;;;;;3.73;1.70;;;6.30;9.70;;;;;;4974295;28;20197;-70
2023/11/11 07:38:46;;;;;;;2.50;1.50;;;6.30;9.00;;;;;;4975107;28;20421;-73
2023/11/11 07:41:16;;;;;;;4.00;1.30;;;6.40;8.10;;;;;;4974351;28;20228;-72
2023/11/11 07:43:42;;;;;;;3.67;1.60;;;6.40;9.30;;;;;;4956769;28;20227;-71
2023/11/11 07:46:09;;;;;;;5.83;1.37;;;6.40;8.10;;;;;;4975004;28;20422;-71
2023/11/11 07:48:35;;;;;;;3.90;1.57;;;6.40;7.80;;;;;;4974995;28;20216;-71
2023/11/11 07:51:01;;;;;;;2.20;1.20;;;6.50;8.20;;;;;;4957085;28;20436;-71
2023/11/11 07:53:28;;;;;;;3.03;1.40;;;6.60;7.20;;;;;;4973786;28;20413;-71
2023/11/11 07:55:53;;;;;;;4.13;2.03;;;6.50;7.50;;;;;;4957783;28;20929;-71
2023/11/11 07:58:20;;;;;;;4.83;2.33;;;6.60;6.30;;;;;;4975544;28;20420;-70
2023/11/11 08:00:46;;;;;;;3.53;1.23;;;6.80;6.80;;;;;;4961878;28;20673;-70
2023/11/11 08:03:11;;;;;;;3.10;1.67;;;6.80;5.00;;;;;;4974334;28;20503;-71
2023/11/11 08:05:37;;;;;;;2.20;1.37;;;7.00;4.00;;;;;;4956931;28;20331;-72
2023/11/11 08:08:03;;;;;;;2.30;1.10;;;7.00;3.80;;;;;;4974064;28;20178;-71
2023/11/11 08:10:31;;;;;;;2.47;1.57;;;7.20;3.00;;;;;;4956095;28;20830;-71
2023/11/11 08:12:57;;;;;;;2.73;1.40;;;7.30;2.00;;;;;;4973371;28;20409;-71
2023/11/11 08:15:23;;;;;;;2.87;1.20;;;7.20;1.80;;;;;;4956281;28;20800;-71
2023/11/11 08:17:49;;;;;;;4.20;1.97;;;7.10;1.60;;;;;;4954694;28;20448;-71
2023/11/11 08:20:18;;;;;;;3.10;1.67;;;7.10;3.80;;;;;;4955487;28;20173;-71
2023/11/11 08:22:45;;;;;;;2.03;1.17;;;7.10;3.30;;;;;;4955435;28;20425;-71
2023/11/11 08:25:14;;;;;;;4.13;1.90;;;7.00;3.20;;;;;;4973498;28;20459;-70
2023/11/11 08:27:43;;;;;;;3.00;1.60;;;6.80;3.10;;;;;;4955801;28;20421;-72
2023/11/11 08:30:10;;;;;;;4.63;1.87;;;6.80;3.90;;;;;;4974171;28;20478;-70
2023/11/11 08:32:37;;;;;;;5.40;1.60;;;6.80;3.90;;;;;;4956652;28;20472;-72
2023/11/11 08:35:05;;;;;;;3.60;1.77;;;6.90;4.40;;;;;;4975219;28;20461;-71
2023/11/11 08:37:32;;;;;;;2.73;1.50;;;6.90;2.70;;;;;;4975052;28;20467;-72
2023/11/11 08:39:58;;;;;;;3.13;1.63;;;7.10;2.70;;;;;;4975120;28;20792;-69
2023/11/11 08:42:23;;;;;;;2.40;1.13;;;7.40;1.00;;;;;;4977507;28;20432;-69
2023/11/11 08:44:51;;;;;;;2.83;1.50;;;7.60;1.00;;;;;;4982829;28;20494;-69
2023/11/11 08:47:17;;;;;;;3.80;1.90;;;7.60;1.00;;;;;;4982597;28;20179;-68
2023/11/11 08:49:43;;;;;;;2.33;1.30;;;7.90;1.00;;;;;;4983036;28;20448;-69
2023/11/11 08:52:09;;;;;;;3.67;1.50;;;7.80;1.00;;;;;;4964994;28;20483;-68
2023/11/11 08:54:35;;;;;;;2.37;1.40;;;7.80;1.00;;;;;;4983353;28;20184;-68
2023/11/11 08:57:01;;;;;;;2.87;1.60;;;7.70;1.00;;;;;;4986365;28;20486;-68
2023/11/11 08:59:26;;;;;;;2.30;1.10;;;7.60;1.00;;;;;;4968834;28;20205;-67
2023/11/11 09:01:52;;;;;;;5.70;2.00;;;7.60;1.00;;;;;;4985634;28;20497;-67
2023/11/11 09:04:18;;;;;;;2.40;1.20;;;7.70;1.00;;;;;;4985026;28;20211;-67
2023/11/11 09:06:44;;;;;;;2.53;1.60;;;7.70;1.00;;;;;;4984464;28;20727;-68
2023/11/11 09:09:14;;;;;;;2.63;1.50;;;7.90;1.00;;;;;;4967950;28;20180;-68
2023/11/11 09:11:40;;;;;;;2.57;1.37;;;8.00;1.00;;;;;;4985287;28;20830;-68
2023/11/11 09:14:05;;;;;;;2.93;1.30;;;8.10;1.00;;;;;;4985877;28;20433;-68
2023/11/11 09:16:35;;;;;;;2.27;1.20;;;8.00;1.00;;;;;;4984507;28;20700;-68
2023/11/11 09:19:04;;;;;;;2.30;1.17;;;8.00;1.00;;;;;;4965280;28;20178;-68
2023/11/11 09:21:31;;;;;;;4.40;1.20;;;7.90;1.00;;;;;;4981543;28;20508;-68
2023/11/11 09:23:58;;;;;;;2.47;1.50;;;7.80;1.00;;;;;;4983644;28;20959;-68
2023/11/11 09:26:24;;;;;;;3.53;1.60;;;7.80;1.00;;;;;;4966399;28;20424;-68
2023/11/11 09:28:50;;;;;;;3.07;1.90;;;7.80;1.00;;;;;;4965588;28;20427;-68
2023/11/11 09:31:16;;;;;;;1.90;1.20;;;8.00;1.00;;;;;;5008159;23;20499;-69
2023/11/11 09:33:44;;;;;;;2.63;1.10;;;8.10;1.00;;;;;;5034070;28;20505;-70
2023/11/11 09:36:10;;;;;;;3.00;1.40;;;8.10;1.00;;;;;;5034463;28;20778;-68
2023/11/11 09:38:36;;;;;;;4.33;1.67;;;8.10;1.00;;;;;;5033730;28;20416;-69
2023/11/11 09:41:03;;;;;;;1.93;0.93;;;8.10;1.00;;;;;;5030059;28;20546;-68
2023/11/11 09:43:29;;;;;;;5.80;1.77;;;8.00;1.00;;;;;;5013741;28;20872;-69
2023/11/11 09:45:55;;;;;;;2.53;1.00;;;8.10;1.00;;;;;;5013994;28;20413;-69
2023/11/11 09:48:21;;;;;;;5.53;2.30;;;7.90;1.00;;;;;;5013914;28;20189;-68
2023/11/11 09:50:47;;;;;;;2.30;1.33;;;7.90;1.00;;;;;;5013717;28;20413;-69
2023/11/11 09:53:13;;;;;;;2.23;1.30;;;7.80;1.00;;;;;;5013660;28;20420;-69
2023/11/11 09:55:40;;;;;;;2.47;1.40;;;7.60;1.20;;;;;;4996190;28;20182;-68
2023/11/11 09:58:06;;;;;;;2.67;1.43;;;7.50;2.70;;;;;;4996063;28;20423;-69
2023/11/11 10:00:32;;;;;;;2.33;1.27;;;7.30;1.70;;;;;;5013448;28;20922;-70
2023/11/11 10:02:58;;;;;;;2.63;1.37;;;7.40;2.20;;;;;;5011749;28;20446;-70
2023/11/11 10:05:24;;;;;;;2.47;1.40;;;7.40;2.00;;;;;;5013480;28;20470;-70
2023/11/11 10:07:51;;;;;;;4.57;2.17;;;7.20;2.10;;;;;;5013223;28;20173;-69
2023/11/11 10:10:16;;;;;;;3.27;2.27;;;7.10;1.90;;;;;;4995767;28;20187;-69
2023/11/11 10:12:42;;;;;;;2.00;1.27;;;7.00;2.70;;;;;;5013209;28;20426;-69
2023/11/11 10:15:08;;;;;;;3.40;1.27;;;7.10;3.70;;;;;;5013603;28;20413;-69
2023/11/11 10:17:41;;;;;;;3.57;1.80;;;7.30;3.40;;;;;;5013468;28;20541;-69
2023/11/11 10:20:10;;;;;;;2.00;1.30;;;7.50;3.40;;;;;;5013728;28;20419;-69
2023/11/11 10:22:40;;;;;;;2.07;1.00;;;7.60;1.20;;;;;;5012979;28;20481;-67
2023/11/11 10:25:06;;;;;;;3.87;1.27;;;7.60;1.00;;;;;;5013388;28;20496;-69
2023/11/11 10:27:32;;;;;;;2.03;1.10;;;7.60;1.00;;;;;;5013144;28;20477;-69
2023/11/11 10:29:58;;;;;;;3.30;1.53;;;7.50;1.00;;;;;;5013105;28;20411;-69
2023/11/11 10:32:23;;;;;;;2.10;1.17;;;7.40;2.20;;;;;;5012789;28;20274;-69
2023/11/11 10:34:49;;;;;;;4.80;1.87;;;7.40;2.20;;;;;;5013107;28;20181;-69
2023/11/11 10:37:14;;;;;;;3.60;2.63;;;7.30;2.50;;;;;;5011635;28;20184;-69
2023/11/11 10:39:40;;;;;;;2.50;1.67;;;7.20;2.10;;;;;;5013016;28;20177;-69
2023/11/11 10:42:06;;;;;;;2.00;1.37;;;7.20;2.50;;;;;;5012540;28;20204;-69
2023/11/11 10:44:32;;;;;;;3.07;2.40;;;7.30;3.00;;;;;;5012734;28;20284;-70
2023/11/11 10:46:58;;;;;;;2.33;1.60;;;7.50;2.50;;;;;;5012759;28;20416;-69
2023/11/11 10:49:26;;;;;;;2.10;1.00;;;7.60;1.00;;;;;;5012559;28;20547;-69
2023/11/11 10:51:53;;;;;;;5.00;2.00;;;7.70;1.00;;;;;;4994805;28;20208;-69
2023/11/11 10:54:21;;;;;;;7.17;2.30;;;7.80;1.40;;;;;;5012552;28;20430;-69
2023/11/11 10:56:48;;;;;;;3.30;1.77;;;8.00;1.00;;;;;;5012514;28;20424;-70
2023/11/11 10:59:15;;;;;;;4.60;1.10;;;8.30;1.00;;;;;;5012375;28;20433;-69
2023/11/11 11:01:41;;;;;;;3.60;1.50;;;8.70;1.00;;;;;;5012261;28;20449;-69
2023/11/11 11:04:08;;;;;;;5.30;1.20;;;9.20;1.00;;;;;;5012394;28;20516;-70
2023/11/11 11:06:54;;;;;;;5.20;1.37;;;9.40;1.00;;;;;;5012497;28;20508;-70
2023/11/11 11:09:42;;;;;;;2.87;1.10;;;9.60;1.00;;;;;;5012509;28;20488;-68
2023/11/11 11:12:26;;;;;;;3.00;1.50;;;9.70;1.00;;;;;;4994458;28;20450;-67
2023/11/11 11:14:55;;;;;;;2.67;1.50;;;9.70;1.00;;;;;;5012429;28;20475;-70
2023/11/11 11:17:41;;;;;;;4.40;1.60;;;9.70;1.00;;;;;;5012353;28;20422;-69
2023/11/11 11:20:14;;;;;;;2.50;1.20;;;9.80;1.00;;;;;;5012033;28;20426;-68
2023/11/11 11:22:46;;;;;;;2.47;1.30;;;9.70;1.00;;;;;;5012076;28;20435;-68
2023/11/11 11:28:14;;;;;;;3.90;1.50;;;9.30;1.00;;;;;;5012376;28;20929;-68
2023/11/11 11:30:49;;;;;;;2.93;1.60;;;9.20;1.00;;;;;;5012296;28;20425;-69
2023/11/11 11:33:35;;;;;;;3.40;1.63;;;9.10;1.00;;;;;;5010975;28;20433;-69
2023/11/11 11:36:09;;;;;;;2.60;1.30;;;9.30;1.00;;;;;;5012364;28;20406;-69
2023/11/11 11:38:40;;;;;;;2.83;1.47;;;9.30;1.00;;;;;;5011916;28;20410;-69
2023/11/11 11:41:11;;;;;;;2.10;1.27;;;9.40;1.00;;;;;;5012067;28;20841;-69
2023/11/11 11:43:39;;;;;;;2.47;1.13;;;9.40;1.00;;;;;;5011851;28;20585;-69
2023/11/11 11:46:05;;;;;;;2.50;1.60;;;9.50;1.00;;;;;;5012074;28;20810;-68
2023/11/11 11:48:38;;;;;;;2.37;1.40;;;9.40;1.00;;;;;;5011936;28;20448;-69
2023/11/11 11:51:05;;;;;;;2.40;1.57;;;9.50;1.00;;;;;;5012001;28;20519;-69
2023/11/11 11:53:30;;;;;;;1.97;1.20;;;9.60;1.00;;;;;;5012139;28;20418;-69
2023/11/11 11:55:56;;;;;;;1.80;1.20;;;9.50;1.00;;;;;;5013315;28;20445;-68
2023/11/11 11:58:22;;;;;;;2.00;1.20;;;9.40;1.00;;;;;;5012599;28;20454;-69
2023/11/11 12:00:47;;;;;;;3.87;1.77;;;9.60;1.00;;;;;;5013141;28;20664;-68
2023/11/11 12:03:14;;;;;;;22.63;6.40;;;9.90;1.00;;;;;;5012314;28;20179;-70
2023/11/11 12:05:40;;;;;;;12.30;4.63;;;10.20;1.00;;;;;;5012250;28;20255;-70
2023/11/11 12:08:05;;;;;;;30.57;7.67;;;10.50;1.00;;;;;;5012146;28;20969;-68
2023/11/11 12:10:47;;;;;;;7.90;2.90;;;10.50;1.00;;;;;;5011820;28;20327;-68
2023/11/11 12:13:13;;;;;;;7.07;2.43;;;10.50;1.00;;;;;;5011688;28;20176;-68
2023/11/11 12:15:47;;;;;;;18.90;3.13;;;10.40;1.00;;;;;;5011782;28;20829;-68
2023/11/11 12:18:13;;;;;;;3.93;2.53;;;10.80;1.00;;;;;;5011796;28;20411;-68
2023/11/11 12:20:43;;;;;;;3.50;1.77;;;10.90;1.00;;;;;;5011530;28;20473;-69
2023/11/11 12:23:10;;;;;;;10.73;3.87;;;11.20;1.00;;;;;;5010311;28;20762;-68
2023/11/11 12:25:42;;;;;;;2.80;1.80;;;11.40;1.00;;;;;;5011630;28;20420;-69
2023/11/11 12:28:08;;;;;;;2.67;1.80;;;11.50;1.00;;;;;;5011702;28;20515;-68
2023/11/11 12:30:33;;;;;;;5.20;1.87;;;11.40;1.00;;;;;;5014115;28;20522;-68
2023/11/11 12:33:03;;;;;;;2.97;2.10;;;11.80;1.00;;;;;;5015176;28;20239;-68
2023/11/11 12:35:31;;;;;;;2.97;1.90;;;11.80;1.00;;;;;;5015502;28;20198;-69
2023/11/11 12:37:57;;;;;;;2.30;1.83;;;11.50;1.00;;;;;;5015254;28;20439;-68
2023/11/11 12:40:36;;;;;;;3.07;2.07;;;11.10;1.00;;;;;;5015240;28;20927;-69
2023/11/11 12:43:01;;;;;;;2.27;1.73;;;10.90;1.00;;;;;;5015131;28;20172;-68
2023/11/11 12:45:29;;;;;;;2.07;1.60;;;10.80;1.00;;;;;;5015179;28;20429;-68
2023/11/11 12:47:55;;;;;;;2.10;1.83;;;10.80;1.00;;;;;;5013862;28;20222;-67
2023/11/11 12:50:31;;;;;;;2.87;1.90;;;10.70;1.00;;;;;;5015102;28;20450;-68
2023/11/11 12:53:15;;;;;;;2.43;1.70;;;10.70;1.00;;;;;;5014923;28;20199;-67
2023/11/11 12:55:42;;;;;;;2.63;1.80;;;10.70;1.00;;;;;;5015044;28;20406;-67
2023/11/11 12:58:27;;;;;;;3.03;1.90;;;10.40;1.00;;;;;;5014960;28;20922;-68
2023/11/11 13:00:55;;;;;;;2.43;1.80;;;10.20;1.00;;;;;;5014878;28;20415;-67
2023/11/11 13:03:26;;;;;;;1.97;1.47;;;10.10;1.00;;;;;;5014786;28;20987;-68